Terminal Aerodrome Forecast
Issued by NWS Tuscon, AZ

Home | Current Version | Previous Version | Text Only | Print | Product List | Glossary On
Versions: 1 2 3 4 5 6 7 8 9 10 11 12 13 14 15 16 17 18 19
000
FTUS45 KTWC 161100 RRA
TAFTUS
TAF
KTUS 161140Z 1612/1712 13014KT P6SM -SHRA SCT080 BKN100
     FM161300 11013KT P6SM SCT070 BKN090
     FM161700 10011KT P6SM VCSH SCT050 BKN080
     FM170000 12009KT P6SM -SHRA BKN050 OVC080=

USA.gov is the U.S. government's official web portal to all federal, state and local government web resources and services.